Time;durP1;ratioP1;P1;durP2;ratioP2;P2;SDS_P1;SDS_P2;PMS_P1;PMS_P2;Temp;Humidity;BMP_temperature;BMP_pressure;BME280_temperature;BME280_humidity;BME280_pressure;Samples;Min_cycle;Max_cycle;Signal;HPM_P1;HPM_P2
2023/09/13 00:01:37;;;;;;;;;13.75;11.25;;;;;;;;5124240;27;8803;-75
2023/09/13 00:04:02;;;;;;;;;13.75;11.75;;;;;;;;5124424;27;8914;-75
2023/09/13 00:06:28;;;;;;;;;15.00;13.25;;;;;;;;5122876;27;8923;-75
2023/09/13 00:08:53;;;;;;;;;12.25;9.00;;;;;;;;5123899;27;8895;-75
2023/09/13 00:11:18;;;;;;;;;10.75;9.50;;;;;;;;5123739;27;8838;-75
2023/09/13 00:13:44;;;;;;;;;12.75;12.75;;;;;;;;5122430;28;8961;-75
2023/09/13 00:16:11;;;;;;;;;13.00;11.25;;;;;;;;5124051;28;8882;-76
2023/09/13 00:18:36;;;;;;;;;13.75;11.25;;;;;;;;5122536;28;9940;-76
2023/09/13 00:21:01;;;;;;;;;13.25;11.25;;;;;;;;5108237;27;10128;-75
2023/09/13 00:23:27;;;;;;;;;17.00;13.00;;;;;;;;5115822;27;8819;-75
2023/09/13 00:25:52;;;;;;;;;14.50;11.00;;;;;;;;5142312;27;8800;-75
2023/09/13 00:28:17;;;;;;;;;14.00;11.50;;;;;;;;5144033;27;8796;-75
2023/09/13 00:30:42;;;;;;;;;15.50;14.75;;;;;;;;5126800;27;8907;-75
2023/09/13 00:33:08;;;;;;;;;15.25;12.00;;;;;;;;5130521;27;8812;-75
2023/09/13 00:35:33;;;;;;;;;12.00;10.50;;;;;;;;5122031;27;8822;-75
2023/09/13 00:37:58;;;;;;;;;10.25;9.00;;;;;;;;5102803;28;8785;-75
2023/09/13 00:40:23;;;;;;;;;15.75;11.75;;;;;;;;5114577;28;8818;-75
2023/09/13 00:42:49;;;;;;;;;13.25;10.75;;;;;;;;5123632;27;8779;-75
2023/09/13 00:45:14;;;;;;;;;12.50;11.25;;;;;;;;5123146;27;8811;-75
2023/09/13 00:47:40;;;;;;;;;15.25;12.75;;;;;;;;5123418;27;8828;-75
2023/09/13 00:50:08;;;;;;;;;16.00;14.00;;;;;;;;5122182;28;10175;-75
2023/09/13 00:52:33;;;;;;;;;14.75;9.75;;;;;;;;5121452;28;10282;-75
2023/09/13 00:54:59;;;;;;;;;16.25;11.75;;;;;;;;5122242;28;10114;-75
2023/09/13 00:57:24;;;;;;;;;14.50;12.50;;;;;;;;5123230;27;8772;-75
2023/09/13 00:59:49;;;;;;;;;11.50;11.50;;;;;;;;5119227;27;8853;-75
2023/09/13 01:02:15;;;;;;;;;17.25;13.50;;;;;;;;5141070;27;9549;-75
2023/09/13 01:04:40;;;;;;;;;17.50;10.50;;;;;;;;5127189;27;8819;-75
2023/09/13 01:07:06;;;;;;;;;11.00;10.00;;;;;;;;5123012;27;8811;-75
2023/09/13 01:09:32;;;;;;;;;11.75;11.00;;;;;;;;5121343;28;9931;-75
2023/09/13 01:11:58;;;;;;;;;17.00;15.75;;;;;;;;5131840;27;8965;-75
2023/09/13 01:14:26;;;;;;;;;20.50;18.25;;;;;;;;5121548;27;8817;-75
2023/09/13 01:16:58;;;;;;;;;16.25;14.25;;;;;;;;5122624;27;8867;-75
2023/09/13 01:19:35;;;;;;;;;19.50;16.75;;;;;;;;5122361;27;10438;-75
2023/09/13 01:22:18;;;;;;;;;17.25;16.00;;;;;;;;5120944;27;10411;-75
2023/09/13 01:24:59;;;;;;;;;12.50;11.75;;;;;;;;5122142;27;10351;-75
2023/09/13 01:27:31;;;;;;;;;18.50;13.75;;;;;;;;5122936;27;10297;-75
2023/09/13 01:29:57;;;;;;;;;18.00;17.00;;;;;;;;5119821;28;10430;-75
2023/09/13 01:32:22;;;;;;;;;18.75;16.50;;;;;;;;5122719;28;10355;-75
2023/09/13 01:34:47;;;;;;;;;20.75;15.25;;;;;;;;5122296;28;10208;-75
2023/09/13 01:37:13;;;;;;;;;19.00;17.75;;;;;;;;5102978;27;8935;-75
2023/09/13 01:39:38;;;;;;;;;24.50;16.75;;;;;;;;5107729;27;9880;-75
2023/09/13 01:42:05;;;;;;;;;19.50;17.75;;;;;;;;5122864;27;9024;-75
2023/09/13 01:44:30;;;;;;;;;21.75;20.50;;;;;;;;5120663;28;8760;-75
2023/09/13 01:46:56;;;;;;;;;16.75;16.75;;;;;;;;5123003;27;10375;-75
2023/09/13 01:49:21;;;;;;;;;20.00;14.25;;;;;;;;5121855;27;8872;-75
2023/09/13 01:51:47;;;;;;;;;13.75;13.50;;;;;;;;5121354;28;8899;-75
2023/09/13 01:54:12;;;;;;;;;16.00;13.75;;;;;;;;5122651;27;8803;-75
2023/09/13 01:56:37;;;;;;;;;22.25;15.25;;;;;;;;5120241;28;8811;-75
2023/09/13 01:59:02;;;;;;;;;20.50;14.00;;;;;;;;5122434;27;8807;-75
2023/09/13 02:01:28;;;;;;;;;23.00;18.75;;;;;;;;5122445;27;8811;-75
2023/09/13 02:03:53;;;;;;;;;17.75;13.50;;;;;;;;5120688;27;8908;-75
2023/09/13 02:06:18;;;;;;;;;18.25;17.50;;;;;;;;5122552;27;8868;-75
2023/09/13 02:08:45;;;;;;;;;18.50;15.50;;;;;;;;5125975;27;8821;-75
2023/09/13 02:11:10;;;;;;;;;19.25;16.00;;;;;;;;5124562;28;8780;-75
2023/09/13 02:13:36;;;;;;;;;18.75;16.50;;;;;;;;5125755;27;9976;-76
2023/09/13 02:16:02;;;;;;;;;17.50;15.00;;;;;;;;5126205;27;8795;-75
2023/09/13 02:18:27;;;;;;;;;18.25;16.25;;;;;;;;5124799;27;8824;-75
2023/09/13 02:20:52;;;;;;;;;16.50;13.75;;;;;;;;5117409;27;8789;-75
2023/09/13 02:23:17;;;;;;;;;17.50;16.00;;;;;;;;5103426;28;8825;-75
2023/09/13 02:25:46;;;;;;;;;13.25;13.25;;;;;;;;5103313;28;8916;-75
2023/09/13 02:28:11;;;;;;;;;15.75;14.75;;;;;;;;5105322;28;8797;-75
2023/09/13 02:30:37;;;;;;;;;19.00;15.50;;;;;;;;5120535;28;10158;-75
2023/09/13 02:33:02;;;;;;;;;21.25;17.50;;;;;;;;5124993;28;8802;-75
2023/09/13 02:35:28;;;;;;;;;16.75;14.75;;;;;;;;5120542;28;8833;-76
2023/09/13 02:37:55;;;;;;;;;16.50;15.50;;;;;;;;5105273;28;8746;-76
2023/09/13 02:40:20;;;;;;;;;14.00;13.00;;;;;;;;5116424;28;10137;-75
2023/09/13 02:42:45;;;;;;;;;15.50;14.00;;;;;;;;5124201;27;10453;-75
2023/09/13 02:45:11;;;;;;;;;19.50;14.50;;;;;;;;5125063;27;8876;-75
2023/09/13 02:47:36;;;;;;;;;12.75;10.50;;;;;;;;5124748;28;9621;-75
2023/09/13 02:50:01;;;;;;;;;18.25;15.25;;;;;;;;5125587;27;8799;-75
2023/09/13 02:52:30;;;;;;;;;16.50;16.00;;;;;;;;5125782;27;8787;-75
2023/09/13 02:54:56;;;;;;;;;19.00;18.00;;;;;;;;5124295;27;8872;-75
2023/09/13 02:57:21;;;;;;;;;22.25;16.00;;;;;;;;5125167;27;10432;-75
2023/09/13 02:59:47;;;;;;;;;16.00;15.00;;;;;;;;5123270;28;8806;-75
2023/09/13 03:02:12;;;;;;;;;11.25;11.25;;;;;;;;5123593;28;8851;-75
2023/09/13 03:04:37;;;;;;;;;20.25;13.00;;;;;;;;5123510;28;8810;-75
2023/09/13 03:07:03;;;;;;;;;17.25;14.50;;;;;;;;5125194;27;8807;-75
2023/09/13 03:09:28;;;;;;;;;17.75;15.25;;;;;;;;5125261;27;8799;-75
2023/09/13 03:11:53;;;;;;;;;15.00;12.75;;;;;;;;5128333;27;8835;-75
2023/09/13 03:14:18;;;;;;;;;13.00;12.25;;;;;;;;5145140;27;8807;-75
2023/09/13 03:16:44;;;;;;;;;15.25;12.75;;;;;;;;5128529;27;8797;-75
2023/09/13 03:19:10;;;;;;;;;18.75;15.75;;;;;;;;5124134;28;8811;-75
2023/09/13 03:21:35;;;;;;;;;17.25;15.00;;;;;;;;5124944;27;8716;-75
2023/09/13 03:24:01;;;;;;;;;18.75;16.50;;;;;;;;5124601;27;10161;-75
2023/09/13 03:26:26;;;;;;;;;20.25;17.00;;;;;;;;5124208;27;8768;-75
2023/09/13 03:28:53;;;;;;;;;21.00;15.75;;;;;;;;5119764;27;8826;-75
2023/09/13 03:31:19;;;;;;;;;15.00;14.25;;;;;;;;5124191;27;8799;-75
2023/09/13 03:33:45;;;;;;;;;17.75;15.75;;;;;;;;5124370;27;10224;-75
2023/09/13 03:36:11;;;;;;;;;18.75;14.50;;;;;;;;5111944;28;10481;-75
2023/09/13 03:38:38;;;;;;;;;19.75;15.00;;;;;;;;5103988;28;10406;-76
2023/09/13 03:41:04;;;;;;;;;19.00;15.50;;;;;;;;5121468;27;8791;-75
2023/09/13 03:43:29;;;;;;;;;16.25;15.50;;;;;;;;5124455;27;10116;-75
2023/09/13 03:45:55;;;;;;;;;15.25;13.25;;;;;;;;5123424;27;8819;-75
2023/09/13 03:48:20;;;;;;;;;14.75;14.75;;;;;;;;5107325;27;8814;-75
2023/09/13 03:50:46;;;;;;;;;20.00;16.00;;;;;;;;5122100;27;10130;-75
2023/09/13 03:53:11;;;;;;;;;17.50;15.50;;;;;;;;5124243;27;8778;-75
2023/09/13 03:55:36;;;;;;;;;15.75;13.25;;;;;;;;5122062;28;10172;-75
2023/09/13 03:58:02;;;;;;;;;15.25;14.25;;;;;;;;5123036;28;8811;-75
2023/09/13 04:00:28;;;;;;;;;16.00;14.50;;;;;;;;5134119;27;8753;-75
2023/09/13 04:02:53;;;;;;;;;16.75;15.00;;;;;;;;5144845;27;10193;-75
2023/09/13 04:05:18;;;;;;;;;12.75;12.75;;;;;;;;5144307;27;8836;-75
2023/09/13 04:07:44;;;;;;;;;16.75;13.75;;;;;;;;5144860;27;8828;-75
2023/09/13 04:10:09;;;;;;;;;18.75;16.25;;;;;;;;5144927;27;8782;-75
2023/09/13 04:12:34;;;;;;;;;20.50;15.00;;;;;;;;5109865;27;8809;-75
2023/09/13 04:15:00;;;;;;;;;14.50;14.50;;;;;;;;5140408;27;9167;-75
2023/09/13 04:17:26;;;;;;;;;17.75;13.75;;;;;;;;5144358;27;8768;-75
2023/09/13 04:19:51;;;;;;;;;18.25;15.75;;;;;;;;5143098;27;10423;-75
2023/09/13 04:22:16;;;;;;;;;14.75;13.25;;;;;;;;5128694;27;8834;-75
2023/09/13 04:24:42;;;;;;;;;15.75;13.25;;;;;;;;5106432;27;8830;-75
2023/09/13 04:27:07;;;;;;;;;14.25;14.00;;;;;;;;5123945;27;8957;-75
2023/09/13 04:29:33;;;;;;;;;20.00;13.75;;;;;;;;5131889;27;10202;-75
2023/09/13 04:31:58;;;;;;;;;15.50;14.50;;;;;;;;5123957;28;8767;-75
2023/09/13 04:34:25;;;;;;;;;10.50;10.50;;;;;;;;5123229;28;8911;-75
2023/09/13 04:36:50;;;;;;;;;15.00;12.75;;;;;;;;5107248;27;8723;-75
2023/09/13 04:39:15;;;;;;;;;15.25;13.00;;;;;;;;5107609;28;10136;-75
2023/09/13 04:41:41;;;;;;;;;15.25;14.00;;;;;;;;5123441;27;8883;-75
2023/09/13 04:44:06;;;;;;;;;19.50;13.25;;;;;;;;5122811;27;8802;-75
2023/09/13 04:46:31;;;;;;;;;14.50;11.50;;;;;;;;5123111;27;8944;-75
2023/09/13 04:48:57;;;;;;;;;12.50;9.75;;;;;;;;5123610;27;8783;-75
2023/09/13 04:51:22;;;;;;;;;13.75;11.00;;;;;;;;5123792;27;8787;-75
2023/09/13 04:53:47;;;;;;;;;11.50;11.50;;;;;;;;5135042;27;8810;-75
2023/09/13 04:56:12;;;;;;;;;17.75;12.00;;;;;;;;5122662;27;8872;-75
2023/09/13 04:58:38;;;;;;;;;15.25;11.00;;;;;;;;5131683;27;8785;-75
2023/09/13 05:01:03;;;;;;;;;12.50;8.75;;;;;;;;5122891;28;8796;-77
2023/09/13 05:03:28;;;;;;;;;12.25;9.75;;;;;;;;5140430;27;8957;-78
2023/09/13 05:05:54;;;;;;;;;11.75;9.25;;;;;;;;5137343;27;8834;-77
2023/09/13 05:08:20;;;;;;;;;15.50;12.00;;;;;;;;5126999;27;8737;-82
2023/09/13 05:10:45;;;;;;;;;9.75;9.75;;;;;;;;5122905;28;9986;-76
2023/09/13 05:13:11;;;;;;;;;13.00;12.25;;;;;;;;5122843;27;8775;-78
2023/09/13 05:15:43;;;;;;;;;13.25;8.25;;;;;;;;5121589;28;8803;-81
2023/09/13 05:18:08;;;;;;;;;13.00;12.25;;;;;;;;5134338;27;8804;-79
2023/09/13 05:20:34;;;;;;;;;17.25;11.75;;;;;;;;5132042;27;10080;-80
2023/09/13 05:22:59;;;;;;;;;11.25;11.25;;;;;;;;5127761;27;8895;-79
2023/09/13 05:25:24;;;;;;;;;16.75;13.50;;;;;;;;5130704;27;8875;-77
2023/09/13 05:27:50;;;;;;;;;10.00;7.00;;;;;;;;5128045;27;8826;-80
2023/09/13 05:30:16;;;;;;;;;11.00;9.00;;;;;;;;5131801;27;8912;-81
2023/09/13 05:32:41;;;;;;;;;13.00;11.50;;;;;;;;5158700;27;10083;-80
2023/09/13 05:35:07;;;;;;;;;14.75;11.50;;;;;;;;5130846;27;9973;-80
2023/09/13 05:37:32;;;;;;;;;13.00;10.50;;;;;;;;5132875;27;8804;-80
2023/09/13 05:39:58;;;;;;;;;17.75;11.50;;;;;;;;5139501;27;8808;-79
2023/09/13 05:42:23;;;;;;;;;13.75;12.50;;;;;;;;5130335;27;8920;-80
2023/09/13 05:44:48;;;;;;;;;15.25;11.50;;;;;;;;5127772;27;9022;-80
2023/09/13 05:47:14;;;;;;;;;11.25;10.25;;;;;;;;5128607;27;9025;-80
2023/09/13 05:49:39;;;;;;;;;16.75;12.75;;;;;;;;5125022;27;9554;-80
2023/09/13 05:52:04;;;;;;;;;16.50;14.50;;;;;;;;5124495;27;9974;-82
2023/09/13 05:54:29;;;;;;;;;23.50;17.50;;;;;;;;5124802;27;8964;-80
2023/09/13 05:56:56;;;;;;;;;10.25;7.50;;;;;;;;5124277;27;8795;-80
2023/09/13 05:59:21;;;;;;;;;19.75;14.25;;;;;;;;5124032;27;8752;-80
2023/09/13 06:01:47;;;;;;;;;14.75;13.00;;;;;;;;5123954;27;10302;-80
2023/09/13 06:04:12;;;;;;;;;14.75;13.00;;;;;;;;5125517;27;8927;-80
2023/09/13 06:06:37;;;;;;;;;17.75;13.75;;;;;;;;5129055;27;8797;-80
2023/09/13 06:09:05;;;;;;;;;16.25;14.50;;;;;;;;5145809;27;8822;-80
2023/09/13 06:11:31;;;;;;;;;17.00;13.25;;;;;;;;5128192;27;11149;-81
2023/09/13 06:13:56;;;;;;;;;14.75;12.00;;;;;;;;5125803;27;10196;-80
2023/09/13 06:16:22;;;;;;;;;11.25;10.00;;;;;;;;5137654;27;8830;-80
2023/09/13 06:18:49;;;;;;;;;11.00;10.75;;;;;;;;5126296;27;8777;-81
2023/09/13 06:21:14;;;;;;;;;13.25;13.00;;;;;;;;5125756;27;10092;-80
2023/09/13 06:23:40;;;;;;;;;12.00;11.75;;;;;;;;5130801;27;9716;-80
2023/09/13 06:26:05;;;;;;;;;17.50;13.00;;;;;;;;5129107;27;8811;-80
2023/09/13 06:28:31;;;;;;;;;2.75;2.75;;;;;;;;5124935;27;8830;-80
2023/09/13 06:30:57;;;;;;;;;13.50;13.00;;;;;;;;5126026;27;8762;-81
2023/09/13 06:33:23;;;;;;;;;14.00;13.00;;;;;;;;5126721;27;10652;-80
2023/09/13 06:35:49;;;;;;;;;15.75;9.75;;;;;;;;5121383;28;10229;-79
2023/09/13 06:38:14;;;;;;;;;13.00;13.00;;;;;;;;5125637;27;8736;-80
2023/09/13 06:40:43;;;;;;;;;14.00;13.00;;;;;;;;5123378;27;10441;-78
2023/09/13 06:43:09;;;;;;;;;12.00;12.00;;;;;;;;5126016;27;8796;-78
2023/09/13 06:45:34;;;;;;;;;19.25;13.00;;;;;;;;5123480;28;10062;-78
2023/09/13 06:47:59;;;;;;;;;14.50;14.25;;;;;;;;5123220;28;8822;-80
2023/09/13 06:50:25;;;;;;;;;11.75;11.75;;;;;;;;5125681;27;8815;-81
2023/09/13 06:52:50;;;;;;;;;14.50;12.00;;;;;;;;5123045;27;8877;-76
2023/09/13 06:55:16;;;;;;;;;14.00;13.75;;;;;;;;5134792;27;8792;-77
2023/09/13 06:57:41;;;;;;;;;14.25;14.25;;;;;;;;5140033;27;8809;-77
2023/09/13 07:00:08;;;;;;;;;20.00;14.75;;;;;;;;5131641;27;8800;-77
2023/09/13 07:02:33;;;;;;;;;13.75;11.75;;;;;;;;5127582;27;8728;-76
2023/09/13 07:04:58;;;;;;;;;14.00;11.75;;;;;;;;5131096;27;10178;-77
2023/09/13 07:07:24;;;;;;;;;14.50;11.00;;;;;;;;5134925;27;8796;-81
2023/09/13 07:09:49;;;;;;;;;16.75;12.00;;;;;;;;5129406;27;8814;-77
2023/09/13 07:12:14;;;;;;;;;17.25;11.75;;;;;;;;5126676;27;8842;-77
2023/09/13 07:14:39;;;;;;;;;10.00;10.00;;;;;;;;5131279;27;8840;-77
2023/09/13 07:17:04;;;;;;;;;15.00;11.25;;;;;;;;5124209;28;8813;-78
2023/09/13 07:19:30;;;;;;;;;16.00;14.00;;;;;;;;5133131;27;8886;-78
2023/09/13 07:21:55;;;;;;;;;13.25;13.25;;;;;;;;5145355;27;8799;-77
2023/09/13 07:24:20;;;;;;;;;19.25;12.75;;;;;;;;5132174;27;8853;-77
2023/09/13 07:26:45;;;;;;;;;15.75;13.00;;;;;;;;5125379;28;8891;-77
2023/09/13 07:29:11;;;;;;;;;13.25;11.75;;;;;;;;5127767;27;8815;-77
2023/09/13 07:31:36;;;;;;;;;12.25;11.25;;;;;;;;5144570;27;9032;-78
2023/09/13 07:34:02;;;;;;;;;14.75;11.25;;;;;;;;5145250;27;8801;-78
2023/09/13 07:36:28;;;;;;;;;12.00;11.00;;;;;;;;5141604;27;8792;-77
2023/09/13 07:38:54;;;;;;;;;11.75;11.25;;;;;;;;5130516;27;11262;-77
2023/09/13 07:41:19;;;;;;;;;9.50;8.50;;;;;;;;5132458;27;8913;-77
2023/09/13 07:43:45;;;;;;;;;9.50;8.00;;;;;;;;5135797;27;8805;-78
2023/09/13 07:46:10;;;;;;;;;11.25;8.75;;;;;;;;5125496;27;8841;-77
2023/09/13 07:48:35;;;;;;;;;12.00;10.75;;;;;;;;5126948;27;8815;-78
2023/09/13 07:51:00;;;;;;;;;12.00;10.50;;;;;;;;5130264;27;9586;-77
2023/09/13 07:53:26;;;;;;;;;8.25;7.50;;;;;;;;5140381;27;8865;-77
2023/09/13 07:55:51;;;;;;;;;8.75;7.50;;;;;;;;5142953;27;8892;-78
2023/09/13 07:58:16;;;;;;;;;9.50;9.00;;;;;;;;5126905;27;8814;-77
2023/09/13 08:00:43;;;;;;;;;9.25;8.25;;;;;;;;5135922;27;8958;-78
2023/09/13 08:03:09;;;;;;;;;15.25;9.00;;;;;;;;5143541;27;9479;-78
2023/09/13 08:05:35;;;;;;;;;9.50;7.75;;;;;;;;5135005;27;9845;-78
2023/09/13 08:08:00;;;;;;;;;12.50;9.25;;;;;;;;5127253;27;10166;-77
2023/09/13 08:10:26;;;;;;;;;10.25;6.50;;;;;;;;5124488;27;8816;-77
2023/09/13 08:12:51;;;;;;;;;10.00;7.00;;;;;;;;5114637;27;8806;-77
2023/09/13 08:15:17;;;;;;;;;7.25;5.50;;;;;;;;5104812;27;8812;-78
2023/09/13 08:17:42;;;;;;;;;7.50;7.50;;;;;;;;5136276;27;9950;-78
2023/09/13 08:20:08;;;;;;;;;11.50;8.00;;;;;;;;5123999;27;8849;-77
2023/09/13 08:22:34;;;;;;;;;11.75;10.50;;;;;;;;5131715;27;8812;-77
2023/09/13 08:24:59;;;;;;;;;10.50;10.50;;;;;;;;5132344;27;10022;-78
2023/09/13 08:27:24;;;;;;;;;11.50;9.50;;;;;;;;5123821;27;9084;-78
2023/09/13 08:29:50;;;;;;;;;13.50;10.50;;;;;;;;5122952;27;8870;-77
2023/09/13 08:32:15;;;;;;;;;9.50;6.75;;;;;;;;5123570;27;8811;-78
2023/09/13 08:34:40;;;;;;;;;9.50;8.50;;;;;;;;5123269;27;8849;-77
2023/09/13 08:37:06;;;;;;;;;13.25;11.00;;;;;;;;5125189;27;9574;-77
2023/09/13 08:39:31;;;;;;;;;14.67;10.33;;;;;;;;5123494;27;8911;-77
2023/09/13 08:41:58;;;;;;;;;9.25;9.00;;;;;;;;5139328;27;8865;-78
2023/09/13 08:44:24;;;;;;;;;14.25;12.50;;;;;;;;5135773;27;8811;-77
2023/09/13 08:46:50;;;;;;;;;13.25;10.75;;;;;;;;5111557;27;10290;-77
2023/09/13 08:49:16;;;;;;;;;14.00;12.00;;;;;;;;5123162;27;9654;-77
2023/09/13 08:51:43;;;;;;;;;14.00;11.25;;;;;;;;5132519;27;9700;-78
2023/09/13 08:54:09;;;;;;;;;10.75;9.50;;;;;;;;5125963;27;9655;-77
2023/09/13 08:56:35;;;;;;;;;10.00;9.00;;;;;;;;5122608;27;9765;-78
2023/09/13 08:59:01;;;;;;;;;7.00;7.00;;;;;;;;5132277;27;8877;-77
2023/09/13 09:01:28;;;;;;;;;7.00;7.00;;;;;;;;5134994;27;8777;-77
2023/09/13 09:03:53;;;;;;;;;7.67;7.67;;;;;;;;5129798;27;9452;-77
2023/09/13 09:06:22;;;;;;;;;9.33;6.00;;;;;;;;5120792;28;10327;-78
2023/09/13 09:08:48;;;;;;;;;9.75;8.50;;;;;;;;5122651;27;8794;-77
2023/09/13 09:11:13;;;;;;;;;9.00;9.00;;;;;;;;5122380;28;9579;-77
2023/09/13 09:13:43;;;;;;;;;10.75;7.25;;;;;;;;5122621;27;8772;-77
2023/09/13 09:16:09;;;;;;;;;9.25;8.00;;;;;;;;5129311;27;8842;-77
2023/09/13 09:18:37;;;;;;;;;7.33;6.33;;;;;;;;5122374;27;9704;-77
2023/09/13 09:21:03;;;;;;;;;9.67;7.00;;;;;;;;5121705;27;9652;-77
2023/09/13 09:23:29;;;;;;;;;9.50;8.25;;;;;;;;5110024;27;9404;-78
2023/09/13 09:25:59;;;;;;;;;8.00;6.00;;;;;;;;5113526;27;9710;-77
2023/09/13 09:28:26;;;;;;;;;4.67;4.67;;;;;;;;5121810;27;9395;-77
2023/09/13 09:30:51;;;;;;;;;7.33;5.67;;;;;;;;5119803;27;9422;-77
2023/09/13 09:33:24;;;;;;;;;5.67;5.67;;;;;;;;5118035;27;9419;-77
2023/09/13 09:35:54;;;;;;;;;5.67;5.67;;;;;;;;5111364;27;10165;-77
2023/09/13 09:38:21;;;;;;;;;5.00;2.67;;;;;;;;5128837;27;9234;-78
2023/09/13 09:40:46;;;;;;;;;6.33;5.00;;;;;;;;5130579;27;9147;-78
2023/09/13 09:43:12;;;;;;;;;4.00;4.00;;;;;;;;5117389;27;9041;-80
2023/09/13 09:45:37;;;;;;;;;5.67;5.33;;;;;;;;5117577;27;10241;-77
2023/09/13 09:48:02;;;;;;;;;7.67;7.67;;;;;;;;5116810;27;8829;-77
2023/09/13 09:50:30;;;;;;;;;7.00;4.33;;;;;;;;5109796;27;8789;-78
2023/09/13 09:52:56;;;;;;;;;3.00;3.00;;;;;;;;5118814;27;8966;-78
2023/09/13 09:55:23;;;;;;;;;4.00;4.00;;;;;;;;5109334;28;9900;-77
2023/09/13 09:57:49;;;;;;;;;5.33;5.33;;;;;;;;5115314;27;8790;-78
2023/09/13 10:00:16;;;;;;;;;4.00;4.00;;;;;;;;5110076;27;9250;-78
2023/09/13 10:02:43;;;;;;;;;4.33;3.33;;;;;;;;5131432;27;9271;-78
2023/09/13 10:05:08;;;;;;;;;7.00;4.00;;;;;;;;5121410;27;9320;-78
2023/09/13 10:07:42;;;;;;;;;5.67;5.00;;;;;;;;5138337;27;9385;-77
2023/09/13 10:10:09;;;;;;;;;6.67;4.67;;;;;;;;5142782;27;8789;-78
2023/09/13 10:12:44;;;;;;;;;6.00;6.00;;;;;;;;5143088;27;9115;-78
2023/09/13 10:15:10;;;;;;;;;6.00;6.00;;;;;;;;5142841;27;9020;-78
2023/09/13 10:17:36;;;;;;;;;6.67;5.33;;;;;;;;5140927;27;9207;-78
2023/09/13 10:20:03;;;;;;;;;2.67;2.33;;;;;;;;5126217;27;8799;-77
2023/09/13 10:22:30;;;;;;;;;8.00;5.67;;;;;;;;5119962;27;9152;-77
2023/09/13 10:24:57;;;;;;;;;8.00;6.67;;;;;;;;5108278;28;10352;-77
2023/09/13 10:27:24;;;;;;;;;7.00;5.67;;;;;;;;5114016;27;8916;-78
2023/09/13 10:30:02;;;;;;;;;4.00;3.00;;;;;;;;5117468;27;9028;-77
2023/09/13 10:32:31;;;;;;;;;5.33;4.67;;;;;;;;5119010;27;9141;-77
2023/09/13 10:34:59;;;;;;;;;5.33;5.33;;;;;;;;5121577;27;10036;-77
2023/09/13 10:37:32;;;;;;;;;6.00;4.75;;;;;;;;5123128;27;8973;-76
2023/09/13 10:40:09;;;;;;;;;6.00;6.00;;;;;;;;5144823;27;8776;-75
2023/09/13 10:42:34;;;;;;;;;4.00;4.00;;;;;;;;5133451;27;8965;-77
2023/09/13 10:45:00;;;;;;;;;5.00;5.00;;;;;;;;5121062;27;8818;-78
2023/09/13 10:47:25;;;;;;;;;4.67;4.67;;;;;;;;5136861;27;8839;-73
2023/09/13 10:49:51;;;;;;;;;6.00;4.00;;;;;;;;5126142;27;8815;-77
2023/09/13 10:52:17;;;;;;;;;7.00;6.00;;;;;;;;5125966;28;8729;-79
2023/09/13 10:54:43;;;;;;;;;2.67;2.67;;;;;;;;5136892;27;11037;-78
2023/09/13 10:57:09;;;;;;;;;3.33;3.33;;;;;;;;5145916;27;8713;-74
2023/09/13 10:59:36;;;;;;;;;3.33;3.33;;;;;;;;5134391;27;8879;-76
2023/09/13 11:02:04;;;;;;;;;1.33;1.33;;;;;;;;5123789;27;9090;-79
2023/09/13 11:04:31;;;;;;;;;3.00;2.00;;;;;;;;5126113;27;9071;-78
2023/09/13 11:06:57;;;;;;;;;6.00;4.00;;;;;;;;5123701;27;9082;-80
2023/09/13 11:09:27;;;;;;;;;4.00;4.00;;;;;;;;5119025;27;8892;-77
2023/09/13 11:11:52;;;;;;;;;5.00;5.00;;;;;;;;5116420;27;8978;-74
2023/09/13 11:14:25;;;;;;;;;3.33;3.33;;;;;;;;5116394;27;8948;-73
2023/09/13 11:16:50;;;;;;;;;3.00;3.00;;;;;;;;5120477;27;8818;-74
2023/09/13 11:19:16;;;;;;;;;2.67;2.67;;;;;;;;5133326;27;9025;-76
2023/09/13 11:21:45;;;;;;;;;3.00;3.00;;;;;;;;5144706;27;8823;-77
2023/09/13 11:24:11;;;;;;;;;6.67;5.00;;;;;;;;5137758;27;8785;-79
2023/09/13 11:26:48;;;;;;;;;3.67;3.67;;;;;;;;5141094;27;8967;-77
2023/09/13 11:29:21;;;;;;;;;4.33;3.67;;;;;;;;5125808;27;8783;-81
2023/09/13 11:31:56;;;;;;;;;4.00;3.67;;;;;;;;5134132;27;9007;-79
2023/09/13 11:34:22;;;;;;;;;4.33;4.33;;;;;;;;5139695;27;9824;-77
2023/09/13 11:36:58;;;;;;;;;3.00;3.00;;;;;;;;5145283;27;8987;-80
2023/09/13 11:39:23;;;;;;;;;2.67;1.67;;;;;;;;5126424;27;11468;-79
2023/09/13 11:41:50;;;;;;;;;3.00;3.00;;;;;;;;5125609;27;9028;-80
2023/09/13 11:44:15;;;;;;;;;4.67;3.67;;;;;;;;5126696;27;8880;-76
2023/09/13 11:46:41;;;;;;;;;4.00;4.00;;;;;;;;5121829;27;9084;-82
2023/09/13 11:49:06;;;;;;;;;2.00;2.00;;;;;;;;5129700;27;8818;-82
2023/09/13 11:51:32;;;;;;;;;2.33;2.00;;;;;;;;5132407;27;8813;-82
2023/09/13 11:54:11;;;;;;;;;3.00;3.00;;;;;;;;5132907;27;9950;-84
2023/09/13 11:56:43;;;;;;;;;3.00;1.67;;;;;;;;5134106;27;8721;-83
2023/09/13 11:59:08;;;;;;;;;2.50;2.00;;;;;;;;5134189;27;8962;-83
2023/09/13 12:01:34;;;;;;;;;2.00;2.00;;;;;;;;5131568;27;8957;-84
2023/09/13 12:04:03;;;;;;;;;4.00;3.00;;;;;;;;5134815;27;8870;-83
2023/09/13 12:06:28;;;;;;;;;3.00;2.00;;;;;;;;5132113;27;9746;-79
2023/09/13 12:08:55;;;;;;;;;1.67;1.67;;;;;;;;5131319;27;9040;-79
2023/09/13 12:11:22;;;;;;;;;2.00;2.00;;;;;;;;5131218;27;8830;-80
2023/09/13 12:13:48;;;;;;;;;2.00;2.00;;;;;;;;5129593;27;10448;-80
2023/09/13 12:16:13;;;;;;;;;3.00;3.00;;;;;;;;5136120;27;8849;-82
2023/09/13 12:18:39;;;;;;;;;3.67;3.67;;;;;;;;5129464;27;8922;-81
2023/09/13 12:21:08;;;;;;;;;3.33;2.67;;;;;;;;5128681;27;8772;-82
2023/09/13 12:23:35;;;;;;;;;2.33;2.33;;;;;;;;5128317;27;9963;-80
2023/09/13 12:26:02;;;;;;;;;3.25;3.00;;;;;;;;5134055;27;8903;-82
2023/09/13 12:28:29;;;;;;;;;3.00;3.00;;;;;;;;5134837;27;8828;-82
2023/09/13 12:30:55;;;;;;;;;3.00;2.25;;;;;;;;5133566;27;8821;-77
2023/09/13 12:33:21;;;;;;;;;3.00;3.00;;;;;;;;5124751;27;10410;-77
2023/09/13 12:35:47;;;;;;;;;1.75;1.75;;;;;;;;5127747;27;8859;-81
2023/09/13 12:38:12;;;;;;;;;0.67;0.67;;;;;;;;5131260;27;8811;-82
2023/09/13 12:40:37;;;;;;;;;4.00;3.00;;;;;;;;5130980;27;8811;-85
2023/09/13 12:43:03;;;;;;;;;5.00;3.00;;;;;;;;5123451;27;8777;-80
2023/09/13 12:45:31;;;;;;;;;3.67;1.00;;;;;;;;5123090;27;8818;-77
2023/09/13 12:47:57;;;;;;;;;4.00;2.25;;;;;;;;5137828;27;8874;-80
2023/09/13 12:50:22;;;;;;;;;2.00;2.00;;;;;;;;5121063;27;9619;-78
2023/09/13 12:52:51;;;;;;;;;2.00;2.00;;;;;;;;5115984;27;8907;-80
2023/09/13 12:55:16;;;;;;;;;1.00;1.00;;;;;;;;5118901;27;8755;-84
2023/09/13 12:57:41;;;;;;;;;3.00;2.00;;;;;;;;5138146;27;8789;-84
2023/09/13 13:00:11;;;;;;;;;4.00;2.00;;;;;;;;5139026;27;9397;-79
2023/09/13 13:02:37;;;;;;;;;2.00;2.00;;;;;;;;5132441;27;8764;-80
2023/09/13 13:05:03;;;;;;;;;2.67;1.67;;;;;;;;5132081;27;8924;-78
2023/09/13 13:07:33;;;;;;;;;3.00;1.25;;;;;;;;5133633;27;8804;-81
2023/09/13 13:10:05;;;;;;;;;2.00;2.00;;;;;;;;5128541;27;8765;-80
2023/09/13 13:12:31;;;;;;;;;5.33;5.33;;;;;;;;5117801;27;10118;-80
2023/09/13 13:14:59;;;;;;;;;4.00;2.33;;;;;;;;5112637;27;8965;-79
2023/09/13 13:17:33;;;;;;;;;4.25;2.25;;;;;;;;5122398;27;11367;-81
2023/09/13 13:20:04;;;;;;;;;1.25;1.00;;;;;;;;5126853;27;9781;-81
2023/09/13 13:22:31;;;;;;;;;2.00;2.00;;;;;;;;5129895;27;8801;-80
2023/09/13 13:24:57;;;;;;;;;2.00;2.00;;;;;;;;5128234;27;8803;-80
2023/09/13 13:27:28;;;;;;;;;2.50;1.00;;;;;;;;5130668;27;8781;-80
2023/09/13 13:29:54;;;;;;;;;2.33;1.67;;;;;;;;5125234;27;8772;-80
2023/09/13 13:32:19;;;;;;;;;2.33;2.33;;;;;;;;5134977;27;9980;-80
2023/09/13 13:34:44;;;;;;;;;2.33;2.33;;;;;;;;5125588;27;8793;-80
2023/09/13 13:37:10;;;;;;;;;2.33;2.00;;;;;;;;5122791;27;8789;-80
2023/09/13 13:39:35;;;;;;;;;1.67;1.67;;;;;;;;5137964;27;8812;-80
2023/09/13 13:42:02;;;;;;;;;2.00;2.00;;;;;;;;5130633;27;8795;-80
2023/09/13 13:44:27;;;;;;;;;2.75;2.75;;;;;;;;5132769;27;8717;-78
2023/09/13 13:46:52;;;;;;;;;1.67;1.67;;;;;;;;5122327;27;8804;-81
2023/09/13 13:49:18;;;;;;;;;3.67;1.33;;;;;;;;5138853;27;9055;-81
2023/09/13 13:51:49;;;;;;;;;1.67;1.67;;;;;;;;5118950;27;8808;-84
2023/09/13 13:54:14;;;;;;;;;1.00;1.00;;;;;;;;5130252;27;8796;-80
2023/09/13 13:56:40;;;;;;;;;2.67;2.67;;;;;;;;5123331;27;8810;-77
2023/09/13 13:59:05;;;;;;;;;2.00;2.00;;;;;;;;5120461;27;8871;-81
2023/09/13 14:01:31;;;;;;;;;0.33;0.00;;;;;;;;5125226;27;8805;-75
2023/09/13 14:03:56;;;;;;;;;1.00;1.00;;;;;;;;5144719;27;8832;-79
2023/09/13 14:06:21;;;;;;;;;2.67;1.00;;;;;;;;5132385;27;8828;-80
2023/09/13 14:08:47;;;;;;;;;0.67;0.67;;;;;;;;5136233;27;8856;-80
2023/09/13 14:11:12;;;;;;;;;2.67;0.33;;;;;;;;5133279;27;9825;-79
2023/09/13 14:13:37;;;;;;;;;0.67;0.67;;;;;;;;5137821;27;8817;-80
2023/09/13 14:16:02;;;;;;;;;0.67;0.67;;;;;;;;5134651;27;8899;-78
2023/09/13 14:18:28;;;;;;;;;1.33;1.33;;;;;;;;5137681;27;9464;-76
2023/09/13 14:20:53;;;;;;;;;4.00;2.67;;;;;;;;5133362;27;8823;-77
2023/09/13 14:23:19;;;;;;;;;1.33;1.33;;;;;;;;5129442;27;8885;-76
2023/09/13 14:25:44;;;;;;;;;2.67;2.67;;;;;;;;5131646;27;8854;-76
2023/09/13 14:28:12;;;;;;;;;2.00;1.67;;;;;;;;5130824;27;8877;-75
2023/09/13 14:30:38;;;;;;;;;3.75;2.00;;;;;;;;5128575;27;8748;-75
2023/09/13 14:33:04;;;;;;;;;2.00;1.67;;;;;;;;5133957;27;8899;-76
2023/09/13 14:35:29;;;;;;;;;2.00;1.00;;;;;;;;5125503;27;8799;-75